createdAt,value
2018-05-01T00:00:38.390Z,0
2018-05-01T00:01:38.371Z,0
2018-05-01T00:02:38.365Z,0
2018-05-01T00:03:38.119Z,0
2018-05-01T00:04:38.351Z,0
2018-05-01T00:05:38.101Z,0
2018-05-01T00:06:38.348Z,0
2018-05-01T00:07:38.326Z,0
2018-05-01T00:08:38.316Z,0
2018-05-01T00:09:38.306Z,0
2018-05-01T00:10:38.296Z,0
2018-05-01T00:11:38.297Z,0
2018-05-01T00:12:38.287Z,0
2018-05-01T00:13:38.024Z,0
2018-05-01T00:14:38.014Z,0
2018-05-01T00:15:38.264Z,0
2018-05-01T00:16:37.997Z,0
2018-05-01T00:17:38.242Z,0
2018-05-01T00:18:38.234Z,0
2018-05-01T00:19:38.266Z,0
2018-05-01T00:20:37.962Z,0
2018-05-01T00:21:38.224Z,0
2018-05-01T00:22:38.210Z,0
2018-05-01T00:23:37.940Z,0
2018-05-01T00:24:37.949Z,0
2018-05-01T00:25:38.175Z,0
2018-05-01T00:26:38.176Z,0
2018-05-01T00:27:38.164Z,0
2018-05-01T00:28:38.155Z,0
2018-05-01T00:29:38.152Z,0
2018-05-01T00:30:38.154Z,0
2018-05-01T00:31:38.140Z,0
2018-05-01T00:32:37.888Z,0
2018-05-01T00:33:38.119Z,0
2018-05-01T00:34:38.164Z,0
2018-05-01T00:35:37.596Z,0
2018-05-01T00:36:37.587Z,0
2018-05-01T00:37:38.083Z,0
2018-05-01T00:38:37.317Z,0
2018-05-01T00:39:38.072Z,0
2018-05-01T00:40:38.059Z,0
2018-05-01T00:41:38.062Z,0
2018-05-01T00:42:38.125Z,0
2018-05-01T00:43:37.865Z,0
2018-05-01T00:44:37.781Z,0
2018-05-01T00:45:38.025Z,0
2018-05-01T00:46:37.767Z,0
2018-05-01T00:47:38.012Z,0
2018-05-01T00:48:38.018Z,0
2018-05-01T00:49:38.003Z,0
2018-05-01T00:50:38.067Z,0
2018-05-01T00:51:37.885Z,0
2018-05-01T00:52:37.724Z,0
2018-05-01T00:53:37.976Z,0
2018-05-01T00:54:37.453Z,0
2018-05-01T00:55:37.950Z,0
2018-05-01T00:56:37.948Z,0
2018-05-01T00:57:37.943Z,0
2018-05-01T00:58:37.690Z,0
2018-05-01T00:59:37.925Z,0
2018-05-01T01:00:37.928Z,0
2018-05-01T01:01:37.910Z,0
2018-05-01T01:02:37.905Z,0
2018-05-01T01:03:37.690Z,0
2018-05-01T01:04:37.647Z,0
2018-05-01T01:05:37.629Z,0
2018-05-01T01:06:37.620Z,0
2018-05-01T01:07:37.867Z,0
2018-05-01T01:08:37.863Z,0
2018-05-01T01:09:37.852Z,0
2018-05-01T01:10:37.853Z,0
2018-05-01T01:11:37.594Z,0
2018-05-01T01:12:37.608Z,0
2018-05-01T01:13:37.837Z,0
2018-05-01T01:14:37.823Z,0
2018-05-01T01:15:37.818Z,0
2018-05-01T01:16:37.877Z,0
2018-05-01T01:17:37.871Z,0
2018-05-01T01:18:37.804Z,0
2018-05-01T01:19:37.788Z,0
2018-05-01T01:20:37.780Z,0
2018-05-01T01:21:37.268Z,0
2018-05-01T01:22:37.520Z,0
2018-05-01T01:23:37.507Z,0
2018-05-01T01:24:37.753Z,0
2018-05-01T01:25:37.744Z,0
2018-05-01T01:26:37.739Z,0
2018-05-01T01:27:37.735Z,0
2018-05-01T01:28:37.723Z,0
2018-05-01T01:29:37.718Z,0
2018-05-01T01:30:37.717Z,0
2018-05-01T01:31:37.456Z,0
2018-05-01T01:32:37.704Z,0
2018-05-01T01:33:37.688Z,0
2018-05-01T01:34:37.689Z,0
2018-05-01T01:35:37.675Z,0
2018-05-01T01:36:37.670Z,0
2018-05-01T01:37:37.673Z,0
2018-05-01T01:38:37.421Z,0
2018-05-01T01:39:37.651Z,0
2018-05-01T01:40:37.389Z,0
2018-05-01T01:41:37.641Z,0
2018-05-01T01:42:37.379Z,0
2018-05-01T01:43:37.119Z,0
2018-05-01T01:44:37.613Z,0
2018-05-01T01:45:37.613Z,0
2018-05-01T01:46:37.349Z,0
2018-05-01T01:47:37.597Z,0
2018-05-01T01:48:37.596Z,0
2018-05-01T01:49:37.586Z,0
2018-05-01T01:50:37.323Z,0
2018-05-01T01:51:37.315Z,0
2018-05-01T01:52:37.566Z,0
2018-05-01T01:53:37.561Z,0
2018-05-01T01:54:37.555Z,0
2018-05-01T01:55:37.036Z,0
2018-05-01T01:56:37.555Z,0
2018-05-01T01:57:37.285Z,0
2018-05-01T01:58:37.523Z,0
2018-05-01T01:59:37.282Z,0
2018-05-01T02:00:37.255Z,0
2018-05-01T02:01:37.503Z,0
2018-05-01T02:02:37.501Z,0
2018-05-01T02:03:37.491Z,0
2018-05-01T02:04:37.484Z,0
2018-05-01T02:05:37.483Z,0
2018-05-01T02:06:37.470Z,0
2018-05-01T02:07:37.210Z,0
2018-05-01T02:08:37.457Z,0
2018-05-01T02:09:37.451Z,0
2018-05-01T02:10:37.194Z,0
2018-05-01T02:11:37.457Z,0
2018-05-01T02:12:37.204Z,0
2018-05-01T02:13:37.256Z,0
2018-05-01T02:14:37.415Z,0
2018-05-01T02:15:37.429Z,0
2018-05-01T02:16:37.405Z,0
2018-05-01T02:17:37.406Z,0
2018-05-01T02:18:37.136Z,0
2018-05-01T02:19:37.131Z,0
2018-05-01T02:20:37.133Z,0
2018-05-01T02:21:37.116Z,0
2018-05-01T02:22:37.112Z,0
2018-05-01T02:23:37.358Z,0
2018-05-01T02:24:37.357Z,0
2018-05-01T02:25:37.103Z,0
2018-05-01T02:26:37.345Z,0
2018-05-01T02:27:37.339Z,0
2018-05-01T02:28:37.325Z,0
2018-05-01T02:29:37.336Z,0
2018-05-01T02:30:37.317Z,0
2018-05-01T02:31:37.318Z,0
2018-05-01T02:32:37.059Z,0
2018-05-01T02:33:37.327Z,0
2018-05-01T02:34:37.296Z,0
2018-05-01T02:35:37.296Z,0
2018-05-01T02:36:37.280Z,0
2018-05-01T02:37:37.275Z,0
2018-05-01T02:38:37.262Z,0
2018-05-01T02:39:37.260Z,0
2018-05-01T02:40:37.249Z,0
2018-05-01T02:41:37.246Z,0
2018-05-01T02:42:36.993Z,0
2018-05-01T02:43:37.245Z,0
2018-05-01T02:44:37.077Z,0
2018-05-01T02:45:37.221Z,0
2018-05-01T02:46:37.211Z,0
2018-05-01T02:47:37.212Z,0
2018-05-01T02:48:37.215Z,0
2018-05-01T02:49:37.202Z,0
2018-05-01T02:50:37.185Z,0
2018-05-01T02:51:37.189Z,0
2018-05-01T02:52:36.919Z,0
2018-05-01T02:53:36.916Z,0
2018-05-01T02:54:37.190Z,0
2018-05-01T02:55:37.156Z,0
2018-05-01T02:56:37.149Z,0
2018-05-01T02:57:37.151Z,0
2018-05-01T02:58:37.147Z,0
2018-05-01T02:59:37.135Z,0
2018-05-01T03:00:36.869Z,0
2018-05-01T03:01:36.866Z,4
2018-05-01T03:02:36.858Z,4
2018-05-01T03:03:37.106Z,4
2018-05-01T03:04:37.110Z,4
2018-05-01T03:05:37.100Z,4
2018-05-01T03:06:37.093Z,4
2018-05-01T03:07:37.139Z,4
2018-05-01T03:08:37.077Z,8
2018-05-01T03:09:36.875Z,8
2018-05-01T03:10:37.081Z,12
2018-05-01T03:11:37.060Z,12
2018-05-01T03:12:36.793Z,12
2018-05-01T03:13:37.054Z,16
2018-05-01T03:14:36.802Z,16
2018-05-01T03:15:37.032Z,20
2018-05-01T03:16:37.033Z,24
2018-05-01T03:17:37.035Z,24
2018-05-01T03:18:37.005Z,28
2018-05-01T03:19:36.998Z,36
2018-05-01T03:20:36.996Z,36
2018-05-01T03:21:37.008Z,44
2018-05-01T03:22:36.985Z,48
2018-05-01T03:23:36.983Z,56
2018-05-01T03:24:36.976Z,68
2018-05-01T03:25:36.967Z,76
2018-05-01T03:26:36.968Z,76
2018-05-01T03:27:36.704Z,84
2018-05-01T03:28:36.970Z,88
2018-05-01T03:29:36.936Z,96
2018-05-01T03:30:36.681Z,104
2018-05-01T03:31:36.933Z,120
2018-05-01T03:32:36.695Z,140
2018-05-01T03:33:36.911Z,160
2018-05-01T03:34:36.913Z,188
2018-05-01T03:35:36.899Z,216
2018-05-01T03:36:36.646Z,248
2018-05-01T03:37:36.886Z,276
2018-05-01T03:38:36.878Z,296
2018-05-01T03:39:36.880Z,316
2018-05-01T03:40:36.870Z,348
2018-05-01T03:41:36.864Z,384
2018-05-01T03:42:36.857Z,420
2018-05-01T03:43:36.848Z,464
2018-05-01T03:44:36.837Z,516
2018-05-01T03:45:36.834Z,572
2018-05-01T03:46:36.827Z,600
2018-05-01T03:47:36.824Z,580
2018-05-01T03:48:36.815Z,564
2018-05-01T03:49:36.556Z,600
2018-05-01T03:50:36.576Z,652
2018-05-01T03:51:36.807Z,732
2018-05-01T03:52:36.535Z,812
2018-05-01T03:53:36.536Z,924
2018-05-01T03:54:36.527Z,1028
2018-05-01T03:55:36.771Z,1108
2018-05-01T03:56:36.255Z,1148
2018-05-01T03:57:36.510Z,1144
2018-05-01T03:58:36.752Z,1164
2018-05-01T03:59:36.490Z,1168
2018-05-01T04:00:36.230Z,1140
2018-05-01T04:01:36.734Z,1108
2018-05-01T04:02:36.482Z,1120
2018-05-01T04:03:36.466Z,1268
2018-05-01T04:04:36.727Z,1420
2018-05-01T04:05:36.199Z,1492
2018-05-01T04:06:36.699Z,1588
2018-05-01T04:07:36.700Z,1720
2018-05-01T04:08:36.436Z,1760
2018-05-01T04:09:36.682Z,1700
2018-05-01T04:10:36.675Z,1728
2018-05-01T04:11:36.686Z,1776
2018-05-01T04:12:36.410Z,1836
2018-05-01T04:13:36.665Z,1956
2018-05-01T04:14:36.653Z,2060
2018-05-01T04:15:36.656Z,2248
2018-05-01T04:16:36.641Z,2444
2018-05-01T04:17:36.633Z,2548
2018-05-01T04:18:36.635Z,2788
2018-05-01T04:19:36.629Z,2972
2018-05-01T04:20:36.613Z,3000
2018-05-01T04:21:36.611Z,3052
2018-05-01T04:22:36.600Z,3200
2018-05-01T04:23:36.605Z,3380
2018-05-01T04:24:36.598Z,3408
2018-05-01T04:25:36.587Z,3292
2018-05-01T04:26:36.327Z,3244
2018-05-01T04:27:36.576Z,3136
2018-05-01T04:28:36.313Z,3064
2018-05-01T04:29:36.306Z,3052
2018-05-01T04:30:36.565Z,3108
2018-05-01T04:31:36.548Z,3196
2018-05-01T04:32:36.544Z,3316
2018-05-01T04:33:36.285Z,3444
2018-05-01T04:34:36.544Z,3548
2018-05-01T04:35:36.535Z,3544
2018-05-01T04:36:36.536Z,3516
2018-05-01T04:37:36.521Z,3656
2018-05-01T04:38:36.513Z,3984
2018-05-01T04:39:36.512Z,4340
2018-05-01T04:40:36.253Z,4620
2018-05-01T04:41:36.244Z,4908
2018-05-01T04:42:36.499Z,4916
2018-05-01T04:43:35.986Z,4964
2018-05-01T04:44:36.227Z,4780
2018-05-01T04:45:36.226Z,4332
2018-05-01T04:46:36.474Z,4084
2018-05-01T04:47:36.464Z,4176
2018-05-01T04:48:36.457Z,4564
2018-05-01T04:49:36.459Z,4944
2018-05-01T04:50:36.198Z,5132
2018-05-01T04:51:36.541Z,5144
2018-05-01T04:52:36.444Z,5440
2018-05-01T04:53:36.182Z,5916
2018-05-01T04:54:36.446Z,6300
2018-05-01T04:55:36.427Z,6732
2018-05-01T04:56:36.427Z,7244
2018-05-01T04:57:36.499Z,7444
2018-05-01T04:58:36.309Z,7988
2018-05-01T04:59:36.407Z,7644
2018-05-01T05:00:36.400Z,7596
2018-05-01T05:01:36.403Z,7848
2018-05-01T05:02:36.148Z,8100
2018-05-01T05:03:36.139Z,8260
2018-05-01T05:04:36.141Z,8356
2018-05-01T05:05:36.398Z,7820
2018-05-01T05:06:36.375Z,7584
2018-05-01T05:07:36.371Z,7796
2018-05-01T05:08:36.365Z,7772
2018-05-01T05:09:36.666Z,7304
2018-05-01T05:10:36.362Z,6948
2018-05-01T05:11:36.360Z,7068
2018-05-01T05:12:36.105Z,7400
2018-05-01T05:13:36.345Z,7644
2018-05-01T05:14:36.344Z,7712
2018-05-01T05:15:36.336Z,8060
2018-05-01T05:16:36.334Z,8768
2018-05-01T05:17:36.338Z,9868
2018-05-01T05:18:36.335Z,11364
2018-05-01T05:19:36.335Z,12124
2018-05-01T05:20:36.337Z,12752
2018-05-01T05:21:36.319Z,13432
2018-05-01T05:22:36.309Z,15296
2018-05-01T05:23:36.307Z,20576
2018-05-01T05:24:36.053Z,24320
2018-05-01T05:25:36.313Z,19360
2018-05-01T05:26:36.303Z,29376
2018-05-01T05:27:36.308Z,28864
2018-05-01T05:28:36.041Z,28032
2018-05-01T05:29:36.291Z,16192
2018-05-01T05:30:36.287Z,14380
2018-05-01T05:31:36.280Z,14556
2018-05-01T05:32:36.291Z,15232
2018-05-01T05:33:36.280Z,15648
2018-05-01T05:34:36.024Z,15712
2018-05-01T05:35:36.286Z,15968
2018-05-01T05:36:36.025Z,14152
2018-05-01T05:37:36.278Z,12076
2018-05-01T05:38:36.283Z,13908
2018-05-01T05:39:36.029Z,12208
2018-05-01T05:40:36.519Z,17280
2018-05-01T05:41:36.033Z,11012
2018-05-01T05:42:36.324Z,9924
2018-05-01T05:43:36.015Z,8992
2018-05-01T05:44:36.022Z,9160
2018-05-01T05:45:36.291Z,9152
2018-05-01T05:46:36.281Z,8712
2018-05-01T05:47:36.271Z,7892
2018-05-01T05:48:36.286Z,7672
2018-05-01T05:49:36.262Z,8064
2018-05-01T05:50:36.267Z,8720
2018-05-01T05:51:36.262Z,8820
2018-05-01T05:52:36.261Z,8492
2018-05-01T05:53:36.259Z,8592
2018-05-01T05:54:36.003Z,8880
2018-05-01T05:55:36.257Z,9060
2018-05-01T05:56:36.257Z,8880
2018-05-01T05:57:36.252Z,9164
2018-05-01T05:58:36.249Z,9520
2018-05-01T05:59:35.999Z,10012
2018-05-01T06:00:36.249Z,10280
2018-05-01T06:01:36.008Z,10872
2018-05-01T06:02:36.244Z,10640
2018-05-01T06:03:36.242Z,10612
2018-05-01T06:04:36.243Z,11228
2018-05-01T06:05:35.994Z,12292
2018-05-01T06:06:36.241Z,13924
2018-05-01T06:07:36.006Z,16256
2018-05-01T06:08:36.258Z,13920
2018-05-01T06:09:36.240Z,14216
2018-05-01T06:10:36.240Z,14904
2018-05-01T06:11:36.035Z,13212
2018-05-01T06:12:35.970Z,13944
2018-05-01T06:13:36.539Z,15488
2018-05-01T06:14:36.236Z,17344
2018-05-01T06:15:35.984Z,17248
2018-05-01T06:16:36.221Z,19168
2018-05-01T06:17:36.218Z,12328
2018-05-01T06:18:35.985Z,12032
2018-05-01T06:19:35.958Z,13896
2018-05-01T06:20:35.961Z,13028
2018-05-01T06:21:36.211Z,13636
2018-05-01T06:22:36.208Z,12472
2018-05-01T06:23:36.294Z,12936
2018-05-01T06:24:35.950Z,13704
2018-05-01T06:25:35.953Z,14748
2018-05-01T06:26:35.952Z,15712
2018-05-01T06:27:36.206Z,15296
2018-05-01T06:28:36.198Z,14016
2018-05-01T06:29:36.194Z,12520
2018-05-01T06:30:35.950Z,11836
2018-05-01T06:31:36.195Z,12264
2018-05-01T06:32:36.188Z,13504
2018-05-01T06:33:35.958Z,14080
2018-05-01T06:34:36.201Z,12036
2018-05-01T06:35:35.932Z,17344
2018-05-01T06:36:35.950Z,13376
2018-05-01T06:37:36.380Z,20896
2018-05-01T06:38:36.179Z,16512
2018-05-01T06:39:36.182Z,38144
2018-05-01T06:40:36.176Z,50848
2018-05-01T06:41:36.182Z,27872
2018-05-01T06:42:36.193Z,53184
2018-05-01T06:43:36.170Z,58688
2018-05-01T06:44:36.181Z,57312
2018-05-01T06:45:35.909Z,20832
2018-05-01T06:46:35.671Z,18848
2018-05-01T06:47:36.170Z,19392
2018-05-01T06:48:36.173Z,31968
2018-05-01T06:49:35.906Z,53248
2018-05-01T06:50:36.160Z,56800
2018-05-01T06:51:36.170Z,11652
2018-05-01T06:52:36.162Z,10092
2018-05-01T06:53:35.905Z,9288
2018-05-01T06:54:35.909Z,9356
2018-05-01T06:55:36.164Z,9888
2018-05-01T06:56:35.915Z,10608
2018-05-01T06:57:35.654Z,20224
2018-05-01T06:58:35.914Z,18336
2018-05-01T06:59:36.168Z,11956
2018-05-01T07:00:35.908Z,9640
2018-05-01T07:01:36.175Z,11704
2018-05-01T07:02:36.163Z,19456
2018-05-01T07:03:35.905Z,16128
2018-05-01T07:04:36.673Z,31552
2018-05-01T07:05:36.166Z,48256
2018-05-01T07:06:36.155Z,27328
2018-05-01T07:07:35.911Z,43584
2018-05-01T07:08:35.902Z,56832
2018-05-01T07:09:35.909Z,23456
2018-05-01T07:10:36.164Z,15300
2018-05-01T07:11:35.901Z,14736
2018-05-01T07:12:36.172Z,14092
2018-05-01T07:13:35.906Z,13588
2018-05-01T07:14:36.187Z,13852
2018-05-01T07:15:35.905Z,14360
2018-05-01T07:16:36.175Z,14028
2018-05-01T07:17:36.157Z,14440
2018-05-01T07:18:35.908Z,15292
2018-05-01T07:19:36.178Z,15968
2018-05-01T07:20:36.177Z,15576
2018-05-01T07:21:36.173Z,16640
2018-05-01T07:22:36.244Z,17376
2018-05-01T07:23:35.913Z,17728
2018-05-01T07:24:35.908Z,20640
2018-05-01T07:25:36.167Z,19904
2018-05-01T07:26:36.176Z,18400
2018-05-01T07:27:36.555Z,16672
2018-05-01T07:28:36.161Z,16896
2018-05-01T07:29:36.163Z,17216
2018-05-01T07:30:36.168Z,17792
2018-05-01T07:31:35.906Z,17984
2018-05-01T07:32:36.169Z,18496
2018-05-01T07:33:36.161Z,17856
2018-05-01T07:34:35.657Z,17088
2018-05-01T07:35:36.469Z,18784
2018-05-01T07:36:36.166Z,21728
2018-05-01T07:37:35.903Z,21600
2018-05-01T07:38:36.234Z,22400
2018-05-01T07:39:35.900Z,23424
2018-05-01T07:40:35.900Z,26400
2018-05-01T07:41:35.839Z,42208
2018-05-01T07:42:35.908Z,33824
2018-05-01T07:43:36.165Z,40864
2018-05-01T07:44:36.165Z,48576
2018-05-01T07:45:36.163Z,45888
2018-05-01T07:46:36.169Z,23584
2018-05-01T07:47:36.172Z,24192
2018-05-01T07:48:35.927Z,17504
2018-05-01T07:49:35.911Z,16736
2018-05-01T07:50:36.229Z,17248
2018-05-01T07:51:36.164Z,17696
2018-05-01T07:52:35.914Z,20480
2018-05-01T07:53:36.160Z,17760
2018-05-01T07:54:35.907Z,18656
2018-05-01T07:55:36.157Z,39008
2018-05-01T07:56:36.165Z,21056
2018-05-01T07:57:35.910Z,25344
2018-05-01T07:58:36.162Z,21920
2018-05-01T07:59:36.170Z,20928
2018-05-01T08:00:35.665Z,51264
2018-05-01T08:01:36.188Z,47360
2018-05-01T08:02:36.179Z,27456
2018-05-01T08:03:35.915Z,33984
2018-05-01T08:04:35.934Z,27104
2018-05-01T08:05:36.201Z,25184
2018-05-01T08:06:35.935Z,25664
2018-05-01T08:07:36.177Z,29696
2018-05-01T08:08:36.181Z,32224
2018-05-01T08:09:36.179Z,39936
2018-05-01T08:10:36.185Z,27488
2018-05-01T08:11:35.933Z,23776
2018-05-01T08:12:36.211Z,23840
2018-05-01T08:13:36.190Z,22496
2018-05-01T08:14:36.190Z,30752
2018-05-01T08:15:36.196Z,36096
2018-05-01T08:16:35.942Z,30592
2018-05-01T08:17:36.198Z,27968
2018-05-01T08:18:36.026Z,27232
2018-05-01T08:19:35.958Z,29728
2018-05-01T08:20:35.991Z,29888
2018-05-01T08:21:36.210Z,30688
2018-05-01T08:22:36.217Z,31136
2018-05-01T08:23:35.717Z,28832
2018-05-01T08:24:36.524Z,28608
2018-05-01T08:25:35.966Z,28736
2018-05-01T08:26:36.232Z,27008
2018-05-01T08:27:36.238Z,29280
2018-05-01T08:28:36.245Z,25664
2018-05-01T08:29:36.249Z,20096
2018-05-01T08:30:35.816Z,16704
2018-05-01T08:31:35.989Z,15200
2018-05-01T08:32:35.989Z,14716
2018-05-01T08:33:36.252Z,15808
2018-05-01T08:34:36.011Z,20832
2018-05-01T08:35:36.001Z,24448
2018-05-01T08:36:35.995Z,24768
2018-05-01T08:37:35.791Z,23648
2018-05-01T08:38:36.254Z,21664
2018-05-01T08:39:36.348Z,20288
2018-05-01T08:40:35.999Z,19328
2018-05-01T08:41:36.073Z,18592
2018-05-01T08:42:36.259Z,17920
2018-05-01T08:43:36.269Z,18496
2018-05-01T08:44:35.755Z,19552
2018-05-01T08:45:36.273Z,20704
2018-05-01T08:46:36.277Z,21088
2018-05-01T08:47:36.267Z,21088
2018-05-01T08:48:36.266Z,20576
2018-05-01T08:49:36.021Z,19392
2018-05-01T08:50:36.268Z,19104
2018-05-01T08:51:36.358Z,19680
2018-05-01T08:52:36.267Z,20352
2018-05-01T08:53:36.270Z,21184
2018-05-01T08:54:36.028Z,21856
2018-05-01T08:55:36.273Z,22016
2018-05-01T08:56:36.021Z,21440
2018-05-01T08:57:36.271Z,20512
2018-05-01T08:58:36.283Z,19744
2018-05-01T08:59:36.281Z,19072
2018-05-01T09:00:36.298Z,18656
2018-05-01T09:01:36.288Z,17760
2018-05-01T09:02:36.044Z,19104
2018-05-01T09:03:36.036Z,19296
2018-05-01T09:04:36.305Z,19936
2018-05-01T09:05:36.274Z,23296
2018-05-01T09:06:36.269Z,23648
2018-05-01T09:07:36.280Z,22080
2018-05-01T09:08:36.017Z,23776
2018-05-01T09:09:36.278Z,25984
2018-05-01T09:10:35.761Z,25472
2018-05-01T09:11:36.026Z,23424
2018-05-01T09:12:36.343Z,20672
2018-05-01T09:13:36.017Z,21760
2018-05-01T09:14:36.027Z,22400
2018-05-01T09:15:36.026Z,21536
2018-05-01T09:16:36.268Z,21792
2018-05-01T09:17:36.355Z,23648
2018-05-01T09:18:36.401Z,24960
2018-05-01T09:19:36.023Z,25696
2018-05-01T09:20:36.282Z,25952
2018-05-01T09:21:36.270Z,26080
2018-05-01T09:22:36.034Z,25888
2018-05-01T09:23:36.017Z,26304
2018-05-01T09:24:36.017Z,26464
2018-05-01T09:25:35.912Z,25856
2018-05-01T09:26:36.035Z,25152
2018-05-01T09:27:36.268Z,24960
2018-05-01T09:28:36.030Z,23488
2018-05-01T09:29:36.023Z,22624
2018-05-01T09:30:36.052Z,22624
2018-05-01T09:31:36.063Z,23008
2018-05-01T09:32:36.021Z,23104
2018-05-01T09:33:36.278Z,23744
2018-05-01T09:34:36.270Z,23392
2018-05-01T09:35:36.015Z,23680
2018-05-01T09:36:36.017Z,22656
2018-05-01T09:37:36.271Z,22208
2018-05-01T09:38:36.029Z,22496
2018-05-01T09:39:36.274Z,21600
2018-05-01T09:40:36.279Z,20928
2018-05-01T09:41:36.277Z,21472
2018-05-01T09:42:36.019Z,21920
2018-05-01T09:43:36.289Z,20448
2018-05-01T09:44:36.024Z,17824
2018-05-01T09:45:36.279Z,17632
2018-05-01T09:46:36.305Z,18432
2018-05-01T09:47:36.529Z,19712
2018-05-01T09:48:36.285Z,20288
2018-05-01T09:49:36.340Z,19392
2018-05-01T09:50:36.036Z,17632
2018-05-01T09:51:36.279Z,16348
2018-05-01T09:52:36.276Z,17152
2018-05-01T09:53:36.283Z,15448
2018-05-01T09:54:36.025Z,14612
2018-05-01T09:55:36.282Z,13492
2018-05-01T09:56:36.283Z,12504
2018-05-01T09:57:36.281Z,12304
2018-05-01T09:58:36.283Z,11524
2018-05-01T09:59:36.314Z,10408
2018-05-01T10:00:35.783Z,9912
2018-05-01T10:01:36.279Z,8444
2018-05-01T10:02:36.039Z,7312
2018-05-01T10:03:35.780Z,6876
2018-05-01T10:04:36.306Z,6728
2018-05-01T10:05:36.280Z,6720
2018-05-01T10:06:36.270Z,6792
2018-05-01T10:07:36.033Z,7300
2018-05-01T10:08:36.282Z,7784
2018-05-01T10:09:36.015Z,9036
2018-05-01T10:10:35.804Z,9520
2018-05-01T10:11:35.759Z,9392
2018-05-01T10:12:36.262Z,9296
2018-05-01T10:13:36.335Z,9752
2018-05-01T10:14:36.257Z,9756
2018-05-01T10:15:36.257Z,9844
2018-05-01T10:16:36.011Z,9864
2018-05-01T10:17:36.278Z,9532
2018-05-01T10:18:36.250Z,7636
2018-05-01T10:19:36.002Z,6436
2018-05-01T10:20:36.007Z,6132
2018-05-01T10:21:35.997Z,6052
2018-05-01T10:22:36.272Z,5852
2018-05-01T10:23:36.252Z,5712
2018-05-01T10:24:36.248Z,5584
2018-05-01T10:25:36.245Z,5488
2018-05-01T10:26:36.228Z,5424
2018-05-01T10:27:36.230Z,5384
2018-05-01T10:28:36.293Z,5324
2018-05-01T10:29:35.968Z,5252
2018-05-01T10:30:36.233Z,5204
2018-05-01T10:31:35.967Z,5160
2018-05-01T10:32:35.958Z,5100
2018-05-01T10:33:36.229Z,5048
2018-05-01T10:34:36.220Z,5032
2018-05-01T10:35:35.949Z,5020
2018-05-01T10:36:35.958Z,4996
2018-05-01T10:37:36.207Z,4960
2018-05-01T10:38:36.404Z,4932
2018-05-01T10:39:36.200Z,4900
2018-05-01T10:40:36.190Z,4888
2018-05-01T10:41:36.205Z,4860
2018-05-01T10:42:36.181Z,4860
2018-05-01T10:43:35.933Z,4864
2018-05-01T10:44:35.669Z,4856
2018-05-01T10:45:35.930Z,4828
2018-05-01T10:46:36.186Z,4840
2018-05-01T10:47:36.186Z,4860
2018-05-01T10:48:36.167Z,4840
2018-05-01T10:49:36.180Z,4816
2018-05-01T10:50:36.158Z,4804
2018-05-01T10:51:35.900Z,4792
2018-05-01T10:52:36.161Z,4800
2018-05-01T10:53:35.639Z,4788
2018-05-01T10:54:35.936Z,4788
2018-05-01T10:55:36.152Z,4796
2018-05-01T10:56:35.888Z,4792
2018-05-01T10:57:35.881Z,4772
2018-05-01T10:58:36.135Z,4744
2018-05-01T10:59:35.882Z,4736
2018-05-01T11:00:36.085Z,4752
2018-05-01T11:01:35.897Z,4864
2018-05-01T11:02:35.612Z,5124
2018-05-01T11:03:35.861Z,4872
2018-05-01T11:04:35.864Z,4940
2018-05-01T11:05:35.597Z,5044
2018-05-01T11:06:35.843Z,4972
2018-05-01T11:07:36.099Z,5004
2018-05-01T11:08:35.836Z,4780
2018-05-01T11:09:35.837Z,4692
2018-05-01T11:10:35.878Z,4884
2018-05-01T11:11:35.835Z,4772
2018-05-01T11:12:36.092Z,4712
2018-05-01T11:13:36.112Z,4696
2018-05-01T11:14:35.565Z,4644
2018-05-01T11:15:36.069Z,4608
2018-05-01T11:16:36.068Z,4592
2018-05-01T11:17:36.350Z,4572
2018-05-01T11:18:35.815Z,4568
2018-05-01T11:19:36.058Z,4600
2018-05-01T11:20:35.807Z,4556
2018-05-01T11:21:35.798Z,4504
2018-05-01T11:22:36.074Z,4484
2018-05-01T11:23:35.785Z,4480
2018-05-01T11:24:36.109Z,4512
2018-05-01T11:25:35.783Z,4536
2018-05-01T11:26:35.773Z,4536
2018-05-01T11:27:35.769Z,4528
2018-05-01T11:28:36.205Z,4548
2018-05-01T11:29:36.028Z,4544
2018-05-01T11:30:36.012Z,4560
2018-05-01T11:31:36.011Z,4588
2018-05-01T11:32:36.006Z,4600
2018-05-01T11:33:35.866Z,4608
2018-05-01T11:34:35.765Z,4600
2018-05-01T11:35:35.751Z,4608
2018-05-01T11:36:36.005Z,4644
2018-05-01T11:37:36.020Z,4576
2018-05-01T11:38:36.005Z,4572
2018-05-01T11:39:35.988Z,5248
2018-05-01T11:40:35.975Z,5744
2018-05-01T11:41:35.980Z,5260
2018-05-01T11:42:35.972Z,4980
2018-05-01T11:43:35.982Z,4668
2018-05-01T11:44:35.968Z,4620
2018-05-01T11:45:35.713Z,5852
2018-05-01T11:46:35.804Z,5492
2018-05-01T11:47:35.967Z,4756
2018-05-01T11:48:35.694Z,4644
2018-05-01T11:49:35.957Z,4696
2018-05-01T11:50:35.956Z,5012
2018-05-01T11:51:35.945Z,4796
2018-05-01T11:52:35.944Z,4628
2018-05-01T11:53:35.944Z,4512
2018-05-01T11:54:35.676Z,4484
2018-05-01T11:55:35.920Z,4944
2018-05-01T11:56:35.932Z,5320
2018-05-01T11:57:35.672Z,4820
2018-05-01T11:58:35.914Z,4612
2018-05-01T11:59:35.931Z,4676
2018-05-01T12:00:35.914Z,4624
2018-05-01T12:01:35.905Z,5224
2018-05-01T12:02:36.082Z,6056
2018-05-01T12:03:35.898Z,5664
2018-05-01T12:04:36.350Z,6384
2018-05-01T12:05:35.907Z,7352
2018-05-01T12:06:35.653Z,7024
2018-05-01T12:07:35.636Z,5444
2018-05-01T12:08:35.382Z,4776
2018-05-01T12:09:35.390Z,4604
2018-05-01T12:10:36.110Z,4604
2018-05-01T12:11:35.362Z,4672
2018-05-01T12:12:35.869Z,4700
2018-05-01T12:13:35.867Z,4900
2018-05-01T12:14:35.939Z,4800
2018-05-01T12:15:35.865Z,4584
2018-05-01T12:16:35.864Z,5172
2018-05-01T12:17:35.855Z,8084
2018-05-01T12:18:36.233Z,9448
2018-05-01T12:19:35.606Z,9268
2018-05-01T12:20:35.609Z,9784
2018-05-01T12:21:35.834Z,8072
2018-05-01T12:22:35.847Z,6440
2018-05-01T12:23:35.832Z,5928
2018-05-01T12:24:35.841Z,5188
2018-05-01T12:25:35.839Z,5292
2018-05-01T12:26:35.824Z,6328
2018-05-01T12:27:35.864Z,8296
2018-05-01T12:28:35.813Z,6732
2018-05-01T12:29:35.556Z,5004
2018-05-01T12:30:35.554Z,4708
2018-05-01T12:31:35.557Z,4836
2018-05-01T12:32:35.591Z,5848
2018-05-01T12:33:35.540Z,6048
2018-05-01T12:34:35.287Z,5608
2018-05-01T12:35:35.793Z,5188
2018-05-01T12:36:36.507Z,5108
2018-05-01T12:37:35.531Z,5064
2018-05-01T12:38:35.793Z,5504
2018-05-01T12:39:35.784Z,5912
2018-05-01T12:40:35.782Z,5548
2018-05-01T12:41:35.816Z,5152
2018-05-01T12:42:35.720Z,4992
2018-05-01T12:43:35.511Z,4936
2018-05-01T12:44:35.762Z,5136
2018-05-01T12:45:35.761Z,5164
2018-05-01T12:46:35.758Z,4940
2018-05-01T12:47:35.498Z,4940
2018-05-01T12:48:36.030Z,4816
2018-05-01T12:49:35.499Z,4888
2018-05-01T12:50:35.497Z,4956
2018-05-01T12:51:35.495Z,5200
2018-05-01T12:52:35.743Z,5044
2018-05-01T12:53:35.484Z,5588
2018-05-01T12:54:35.731Z,7028
2018-05-01T12:55:35.727Z,6064
2018-05-01T12:56:35.234Z,6120
2018-05-01T12:57:35.721Z,6196
2018-05-01T12:58:35.728Z,5324
2018-05-01T12:59:35.469Z,6068
2018-05-01T13:00:35.214Z,7892
2018-05-01T13:01:35.457Z,7308
2018-05-01T13:02:35.710Z,5732
2018-05-01T13:03:35.703Z,5584
2018-05-01T13:04:35.698Z,5264
2018-05-01T13:05:35.464Z,5944
2018-05-01T13:06:35.690Z,6720
2018-05-01T13:07:35.441Z,6532
2018-05-01T13:08:35.691Z,5764
2018-05-01T13:09:35.686Z,5700
2018-05-01T13:10:35.678Z,5656
2018-05-01T13:11:35.428Z,5156
2018-05-01T13:12:35.682Z,5360
2018-05-01T13:13:35.162Z,5736
2018-05-01T13:14:35.160Z,6084
2018-05-01T13:15:35.668Z,6588
2018-05-01T13:16:35.700Z,6212
2018-05-01T13:17:35.734Z,6756
2018-05-01T13:18:35.655Z,7276
2018-05-01T13:19:35.661Z,6564
2018-05-01T13:20:35.202Z,5552
2018-05-01T13:21:35.659Z,5248
2018-05-01T13:22:35.639Z,4968
2018-05-01T13:23:35.636Z,5132
2018-05-01T13:24:35.656Z,5292
2018-05-01T13:25:35.651Z,5904
2018-05-01T13:26:35.383Z,6204
2018-05-01T13:27:35.628Z,5868
2018-05-01T13:28:35.622Z,5380
2018-05-01T13:29:35.126Z,4924
2018-05-01T13:30:35.637Z,5016